createdAt,value
2023-05-24T00:00:13.394Z,100629.86
2023-05-24T00:03:04.933Z,100629.39
2023-05-24T00:05:37.953Z,100622.75
2023-05-24T00:08:07.002Z,100624.23
2023-05-24T00:10:35.667Z,100620.67
2023-05-24T00:13:04.327Z,100620.61
2023-05-24T00:15:32.995Z,100615.37
2023-05-24T00:18:01.710Z,100613.48
2023-05-24T00:20:30.424Z,100609.66
2023-05-24T00:22:59.134Z,100610.52
2023-05-24T00:25:27.774Z,100612.20
2023-05-24T00:27:56.873Z,100615.98
2023-05-24T00:30:27.530Z,100613.07
2023-05-24T00:32:57.338Z,100615.47
2023-05-24T00:35:26.037Z,100618.40
2023-05-24T00:37:55.726Z,100623.02
2023-05-24T00:40:24.322Z,100618.38
2023-05-24T00:42:53.019Z,100617.52
2023-05-24T00:45:21.638Z,100615.98
2023-05-24T00:47:50.558Z,100616.58
2023-05-24T00:50:20.870Z,100613.48
2023-05-24T00:52:51.748Z,100613.42
2023-05-24T00:55:21.079Z,100610.48
2023-05-24T00:57:52.598Z,100605.46
2023-05-24T01:00:21.483Z,100607.17
2023-05-24T01:02:52.148Z,100604.11
2023-05-24T01:05:21.732Z,100601.96
2023-05-24T01:08:12.014Z,100600.23
2023-05-24T01:11:06.699Z,100601.05
2023-05-24T01:14:15.132Z,100603.75
2023-05-24T01:17:09.607Z,100606.50
2023-05-24T01:19:54.984Z,100604.41
2023-05-24T01:23:17.123Z,100603.96
2023-05-24T01:26:21.268Z,100602.30
2023-05-24T01:28:51.413Z,100604.46
2023-05-24T01:31:21.824Z,100608.08
2023-05-24T01:33:51.302Z,100607.68
2023-05-24T01:36:21.583Z,100606.91
2023-05-24T01:38:52.014Z,100609.42
2023-05-24T01:41:38.818Z,100605.80
2023-05-24T01:44:15.963Z,100603.92
2023-05-24T01:46:50.458Z,100599.85
2023-05-24T01:49:26.422Z,100602.10
2023-05-24T01:52:11.763Z,100604.23
2023-05-24T01:54:48.299Z,100601.77
2023-05-24T01:57:23.670Z,100601.13
2023-05-24T01:59:53.312Z,100598.60
2023-05-24T02:02:22.196Z,100598.77
2023-05-24T02:04:51.589Z,100600.55
2023-05-24T02:07:20.223Z,100603.23
2023-05-24T02:09:48.807Z,100605.67
2023-05-24T02:12:17.473Z,100603.04
2023-05-24T02:14:46.219Z,100603.58
2023-05-24T02:17:14.844Z,100604.52
2023-05-24T02:19:43.702Z,100604.63
2023-05-24T02:22:13.241Z,100605.69
2023-05-24T02:24:41.935Z,100605.84
2023-05-24T02:27:10.799Z,100608.61
2023-05-24T02:29:39.514Z,100607.34
2023-05-24T02:32:08.290Z,100607.77
2023-05-24T02:34:36.899Z,100610.66
2023-05-24T02:37:06.424Z,100614.92
2023-05-24T02:39:36.112Z,100621.21
2023-05-24T02:42:06.032Z,100623.84
2023-05-24T02:44:35.755Z,100626.56
2023-05-24T02:47:04.677Z,100624.80
2023-05-24T02:49:36.411Z,100620.86
2023-05-24T02:52:05.831Z,100631.51
2023-05-24T02:54:34.573Z,100628.80
2023-05-24T02:57:03.861Z,100628.01
2023-05-24T02:59:33.733Z,100627.73
2023-05-24T03:02:03.256Z,100624.91
2023-05-24T03:04:32.106Z,100619.77
2023-05-24T03:07:00.893Z,100617.73
2023-05-24T03:09:29.790Z,100621.95
2023-05-24T03:11:58.704Z,100626.42
2023-05-24T03:14:27.411Z,100627.89
2023-05-24T03:16:56.255Z,100630.07
2023-05-24T03:19:25.018Z,100632.02
2023-05-24T03:21:53.924Z,100635.17
2023-05-24T03:24:22.572Z,100633.80
2023-05-24T03:26:51.250Z,100633.02
2023-05-24T03:29:19.974Z,100636.04
2023-05-24T03:31:49.650Z,100632.34
2023-05-24T03:34:19.753Z,100630.71
2023-05-24T03:36:48.693Z,100634.77
2023-05-24T03:39:17.529Z,100635.11
2023-05-24T03:41:58.063Z,100636.55
2023-05-24T03:44:27.569Z,100634.80
2023-05-24T03:46:57.818Z,100635.91
2023-05-24T03:49:26.537Z,100637.77
2023-05-24T03:51:55.249Z,100638.36
2023-05-24T03:54:23.912Z,100636.93
2023-05-24T03:56:53.713Z,100636.59
2023-05-24T03:59:23.148Z,100636.89
2023-05-24T04:01:52.062Z,100637.66
2023-05-24T04:04:22.590Z,100637.77
2023-05-24T04:06:51.411Z,100639.02
2023-05-24T04:09:20.133Z,100637.10
2023-05-24T04:11:48.857Z,100639.23
2023-05-24T04:14:18.511Z,100644.11
2023-05-24T04:16:48.620Z,100642.45
2023-05-24T04:19:17.659Z,100643.84
2023-05-24T04:21:46.513Z,100644.09
2023-05-24T04:24:15.359Z,100647.25
2023-05-24T04:26:45.774Z,100646.17
2023-05-24T04:29:14.510Z,100648.66
2023-05-24T04:31:49.306Z,100647.02
2023-05-24T04:34:18.595Z,100649.55
2023-05-24T04:36:47.826Z,100652.00
2023-05-24T04:39:16.847Z,100650.64
2023-05-24T04:41:45.840Z,100653.27
2023-05-24T04:44:14.492Z,100655.31
2023-05-24T04:46:43.213Z,100655.27
2023-05-24T04:49:12.142Z,100656.39
2023-05-24T04:51:40.829Z,100654.48
2023-05-24T04:54:09.714Z,100653.77
2023-05-24T04:56:39.149Z,100655.13
2023-05-24T04:59:08.932Z,100659.37
2023-05-24T05:01:37.831Z,100654.55
2023-05-24T05:04:08.011Z,100651.80
2023-05-24T05:06:40.084Z,100649.39
2023-05-24T05:09:10.671Z,100648.85
2023-05-24T05:11:40.087Z,100648.64
2023-05-24T05:14:11.892Z,100650.23
2023-05-24T05:16:41.645Z,100647.86
2023-05-24T05:19:10.373Z,100650.14
2023-05-24T05:21:40.050Z,100647.80
2023-05-24T05:24:09.051Z,100649.38
2023-05-24T05:26:37.736Z,100646.41
2023-05-24T05:29:06.654Z,100648.26
2023-05-24T05:31:35.439Z,100649.41
2023-05-24T05:37:38.842Z,100651.39
2023-05-24T05:40:08.398Z,100646.89
2023-05-24T05:42:37.192Z,100648.38
2023-05-24T05:45:06.698Z,100653.09
2023-05-24T05:47:39.184Z,100652.71
2023-05-24T05:50:08.677Z,100657.47
2023-05-24T05:52:38.821Z,100654.90
2023-05-24T05:55:25.455Z,100659.70
2023-05-24T05:57:54.169Z,100658.91
2023-05-24T06:00:23.887Z,100661.15
2023-05-24T06:02:52.766Z,100664.23
2023-05-24T06:05:21.661Z,100664.71
2023-05-24T06:07:50.323Z,100665.59
2023-05-24T06:10:19.085Z,100666.08
2023-05-24T06:12:48.126Z,100668.61
2023-05-24T06:15:16.948Z,100665.36
2023-05-24T06:17:48.118Z,100667.61
2023-05-24T06:20:17.210Z,100672.31
2023-05-24T06:22:46.493Z,100671.56
2023-05-24T06:25:19.391Z,100672.88
2023-05-24T06:27:47.994Z,100671.21
2023-05-24T06:30:16.759Z,100674.55
2023-05-24T06:32:45.589Z,100669.13
2023-05-24T06:35:14.338Z,100664.28
2023-05-24T06:37:43.904Z,100663.89
2023-05-24T06:40:13.251Z,100665.04
2023-05-24T06:42:41.971Z,100665.39
2023-05-24T06:45:11.460Z,100664.11
2023-05-24T06:47:40.045Z,100666.77
2023-05-24T06:50:09.719Z,100662.36
2023-05-24T06:52:38.424Z,100664.89
2023-05-24T06:55:07.545Z,100664.60
2023-05-24T06:57:36.216Z,100665.82
2023-05-24T07:00:10.145Z,100668.47
2023-05-24T07:02:42.421Z,100668.29
2023-05-24T07:05:14.312Z,100668.98
2023-05-24T07:07:44.051Z,100662.49
2023-05-24T07:10:13.559Z,100662.70
2023-05-24T07:12:42.284Z,100664.33
2023-05-24T07:15:11.564Z,100666.96
2023-05-24T07:17:40.287Z,100666.05
2023-05-24T07:20:11.043Z,100668.14
2023-05-24T07:22:41.388Z,100673.20
2023-05-24T07:25:10.682Z,100674.56
2023-05-24T07:27:39.421Z,100676.64
2023-05-24T07:30:35.759Z,100676.36
2023-05-24T07:33:07.733Z,100675.73
2023-05-24T07:35:36.494Z,100675.02
2023-05-24T07:38:05.178Z,100678.61
2023-05-24T07:40:34.086Z,100676.75
2023-05-24T07:43:03.977Z,100678.05
2023-05-24T07:45:32.899Z,100675.52
2023-05-24T07:48:02.069Z,100675.98
2023-05-24T07:50:31.259Z,100680.34
2023-05-24T07:52:59.872Z,100684.59
2023-05-24T07:55:30.452Z,100684.23
2023-05-24T07:57:59.199Z,100683.95
2023-05-24T08:00:27.948Z,100681.81
2023-05-24T08:02:56.735Z,100682.12
2023-05-24T08:05:26.101Z,100682.60
2023-05-24T08:07:55.493Z,100679.29
2023-05-24T08:10:25.782Z,100679.33
2023-05-24T08:12:56.367Z,100675.05
2023-05-24T08:15:25.230Z,100677.83
2023-05-24T08:17:53.945Z,100675.13
2023-05-24T08:20:22.592Z,100676.20
2023-05-24T08:22:51.497Z,100675.89
2023-05-24T08:25:21.199Z,100674.48
2023-05-24T08:27:49.965Z,100676.73
2023-05-24T08:30:18.684Z,100676.13
2023-05-24T08:32:47.278Z,100673.74
2023-05-24T08:37:48.341Z,100669.53
2023-05-24T08:40:18.250Z,100665.89
2023-05-24T08:42:47.934Z,100666.54
2023-05-24T08:45:18.395Z,100667.53
2023-05-24T08:47:48.387Z,100664.97
2023-05-24T08:50:18.450Z,100667.06
2023-05-24T08:52:48.277Z,100665.18
2023-05-24T08:55:17.636Z,100663.56
2023-05-24T08:57:47.904Z,100665.25
2023-05-24T09:00:18.219Z,100662.48
2023-05-24T09:02:47.837Z,100664.75
2023-05-24T09:05:18.325Z,100660.39
2023-05-24T09:07:48.014Z,100661.30
2023-05-24T09:10:19.702Z,100664.18
2023-05-24T09:12:54.776Z,100663.66
2023-05-24T09:15:23.561Z,100665.00
2023-05-24T09:17:54.797Z,100670.36
2023-05-24T09:20:23.728Z,100671.73
2023-05-24T09:22:53.771Z,100669.57
2023-05-24T09:25:22.520Z,100668.04
2023-05-24T09:27:53.188Z,100664.81
2023-05-24T09:30:22.398Z,100661.62
2023-05-24T09:33:02.183Z,100663.85
2023-05-24T09:35:31.847Z,100661.10
2023-05-24T09:38:00.952Z,100658.17
2023-05-24T09:40:30.355Z,100660.33
2023-05-24T09:43:10.339Z,100658.32
2023-05-24T09:45:49.328Z,100651.73
2023-05-24T09:48:18.366Z,100651.55
2023-05-24T09:51:10.009Z,100650.82
2023-05-24T09:53:38.953Z,100647.76
2023-05-24T09:56:09.635Z,100651.08
2023-05-24T09:58:39.856Z,100647.46
2023-05-24T10:01:18.869Z,100650.36
2023-05-24T10:04:04.215Z,100649.16
2023-05-24T10:06:40.330Z,100648.80
2023-05-24T10:09:10.265Z,100649.51
2023-05-24T10:11:40.264Z,100646.40
2023-05-24T10:14:10.230Z,100642.64
2023-05-24T10:16:39.509Z,100640.96
2023-05-24T10:19:08.470Z,100641.44
2023-05-24T10:21:43.017Z,100644.02
2023-05-24T10:24:14.113Z,100643.58
2023-05-24T10:26:44.618Z,100637.80
2023-05-24T10:29:42.298Z,100639.88
2023-05-24T10:32:12.719Z,100638.80
2023-05-24T10:34:43.191Z,100638.21
2023-05-24T10:37:12.004Z,100637.69
2023-05-24T10:39:42.512Z,100633.73
2023-05-24T10:42:13.825Z,100632.44
2023-05-24T10:44:42.549Z,100632.01
2023-05-24T10:47:13.446Z,100630.58
2023-05-24T10:50:04.945Z,100628.66
2023-05-24T10:52:37.691Z,100628.29
2023-05-24T10:56:23.675Z,100627.64
2023-05-24T10:58:55.520Z,100620.69
2023-05-24T11:01:35.089Z,100618.08
2023-05-24T11:04:18.574Z,100614.27
2023-05-24T11:07:03.488Z,100617.02
2023-05-24T11:09:33.650Z,100617.21
2023-05-24T11:12:09.416Z,100612.13
2023-05-24T11:14:40.226Z,100608.95
2023-05-24T11:17:09.699Z,100601.49
2023-05-24T11:19:47.598Z,100598.64
2023-05-24T11:22:20.358Z,100598.92
2023-05-24T11:24:49.564Z,100595.73
2023-05-24T11:27:18.260Z,100595.00
2023-05-24T11:29:48.607Z,100591.88
2023-05-24T11:32:22.092Z,100590.04
2023-05-24T11:34:51.305Z,100591.55
2023-05-24T11:37:26.264Z,100588.91
2023-05-24T11:40:05.225Z,100587.00
2023-05-24T11:42:34.113Z,100582.98
2023-05-24T11:45:02.855Z,100579.63
2023-05-24T11:47:36.855Z,100580.00
2023-05-24T11:50:07.283Z,100581.53
2023-05-24T11:52:41.220Z,100580.60
2023-05-24T11:55:16.344Z,100580.43
2023-05-24T11:57:54.862Z,100576.88
2023-05-24T12:00:27.839Z,100573.13
2023-05-24T12:03:03.054Z,100569.46
2023-05-24T12:05:32.054Z,100570.27
2023-05-24T12:08:09.283Z,100567.52
2023-05-24T12:10:44.584Z,100565.65
2023-05-24T12:13:25.663Z,100561.25
2023-05-24T12:15:57.030Z,100560.68
2023-05-24T12:18:26.779Z,100556.19
2023-05-24T12:20:55.973Z,100557.82
2023-05-24T12:23:32.202Z,100557.23
2023-05-24T12:26:02.377Z,100557.20
2023-05-24T12:28:39.383Z,100552.45
2023-05-24T12:31:09.412Z,100557.73
2023-05-24T12:33:39.890Z,100553.48
2023-05-24T12:36:10.625Z,100552.38
2023-05-24T12:38:39.413Z,100549.90
2023-05-24T12:41:13.667Z,100551.80
2023-05-24T12:43:44.780Z,100551.09
2023-05-24T12:46:14.132Z,100550.56
2023-05-24T12:48:43.183Z,100542.68
2023-05-24T12:51:12.065Z,100543.73
2023-05-24T12:53:40.671Z,100549.50
2023-05-24T12:56:09.499Z,100548.18
2023-05-24T12:58:38.465Z,100549.41
2023-05-24T13:01:07.473Z,100547.41
2023-05-24T13:03:36.278Z,100541.09
2023-05-24T13:06:05.444Z,100540.70
2023-05-24T13:08:34.321Z,100544.52
2023-05-24T13:11:03.299Z,100544.37
2023-05-24T13:13:32.721Z,100544.05
2023-05-24T13:16:01.531Z,100545.61
2023-05-24T13:18:30.579Z,100549.46
2023-05-24T13:21:00.901Z,100550.27
2023-05-24T13:23:30.038Z,100545.98
2023-05-24T13:25:58.837Z,100541.15
2023-05-24T13:28:30.733Z,100537.90
2023-05-24T13:30:59.594Z,100534.31
2023-05-24T13:33:28.352Z,100537.45
2023-05-24T13:35:57.761Z,100536.71
2023-05-24T13:38:26.502Z,100537.27
2023-05-24T13:40:56.632Z,100532.66
2023-05-24T13:43:25.689Z,100532.81
2023-05-24T13:45:55.069Z,100526.55
2023-05-24T13:48:23.784Z,100530.65
2023-05-24T13:50:52.407Z,100528.27
2023-05-24T13:53:23.095Z,100531.22
2023-05-24T13:55:51.831Z,100530.86
2023-05-24T13:58:20.509Z,100536.56
2023-05-24T14:00:49.161Z,100532.80
2023-05-24T14:03:18.107Z,100535.02
2023-05-24T14:05:47.040Z,100535.70
2023-05-24T14:08:15.655Z,100534.91
2023-05-24T14:10:45.416Z,100535.05
2023-05-24T14:13:34.160Z,100533.48
2023-05-24T14:16:02.865Z,100536.27
2023-05-24T14:18:31.626Z,100537.05
2023-05-24T14:21:00.372Z,100542.70
2023-05-24T14:23:32.031Z,100545.58
2023-05-24T14:26:00.653Z,100545.04
2023-05-24T14:28:29.282Z,100546.26
2023-05-24T14:30:57.834Z,100541.80
2023-05-24T14:33:26.420Z,100547.20
2023-05-24T14:35:55.267Z,100552.73
2023-05-24T14:38:25.180Z,100558.98
2023-05-24T14:40:54.005Z,100556.88
2023-05-24T14:43:22.773Z,100555.52
2023-05-24T14:45:52.274Z,100551.52
2023-05-24T14:48:21.100Z,100553.21
2023-05-24T14:50:49.870Z,100554.70
2023-05-24T14:53:18.571Z,100554.73
2023-05-24T14:55:47.315Z,100552.45
2023-05-24T14:58:17.419Z,100555.29
2023-05-24T15:00:46.450Z,100556.46
2023-05-24T15:03:15.370Z,100553.36
2023-05-24T15:05:44.269Z,100553.33
2023-05-24T15:08:13.303Z,100549.48
2023-05-24T15:10:45.343Z,100548.55
2023-05-24T15:13:14.729Z,100552.58
2023-05-24T15:15:43.663Z,100551.84
2023-05-24T15:18:12.843Z,100552.65
2023-05-24T15:20:42.023Z,100548.08
2023-05-24T15:23:11.185Z,100547.41
2023-05-24T15:25:41.356Z,100546.38
2023-05-24T15:28:12.999Z,100548.43
2023-05-24T15:30:45.068Z,100549.73
2023-05-24T15:33:14.767Z,100549.10
2023-05-24T15:35:43.813Z,100547.48
2023-05-24T15:38:13.004Z,100547.71
2023-05-24T15:40:42.776Z,100548.04
2023-05-24T15:43:12.117Z,100549.73
2023-05-24T15:45:40.717Z,100550.13
2023-05-24T15:48:10.280Z,100552.15
2023-05-24T15:50:59.986Z,100548.64
2023-05-24T15:53:29.166Z,100549.56
2023-05-24T15:55:57.737Z,100549.08
2023-05-24T15:58:26.350Z,100547.18
2023-05-24T16:00:55.042Z,100552.83
2023-05-24T16:03:23.827Z,100553.39
2023-05-24T16:05:52.677Z,100547.92
2023-05-24T16:08:27.751Z,100549.20
2023-05-24T16:10:57.603Z,100549.65
2023-05-24T16:13:26.531Z,100552.81
2023-05-24T16:15:55.306Z,100552.23
2023-05-24T16:18:23.925Z,100550.86
2023-05-24T16:20:52.913Z,100550.80
2023-05-24T16:23:24.172Z,100550.61
2023-05-24T16:25:52.992Z,100551.81
2023-05-24T16:28:24.389Z,100552.80
2023-05-24T16:30:56.163Z,100556.30
2023-05-24T16:33:25.428Z,100559.83
2023-05-24T16:35:57.833Z,100556.29
2023-05-24T16:38:27.685Z,100559.36
2023-05-24T16:40:56.338Z,100559.27
2023-05-24T16:43:25.078Z,100558.19
2023-05-24T16:45:55.326Z,100556.49
2023-05-24T16:48:28.914Z,100554.73
2023-05-24T16:51:01.265Z,100557.02
2023-05-24T16:53:30.191Z,100561.04
2023-05-24T16:55:58.968Z,100560.21
2023-05-24T16:58:29.267Z,100561.45
2023-05-24T17:00:59.950Z,100565.21
2023-05-24T17:03:29.381Z,100566.19
2023-05-24T17:06:07.400Z,100563.58
2023-05-24T17:08:37.203Z,100566.71
2023-05-24T17:11:07.905Z,100570.72
2023-05-24T17:13:37.171Z,100568.74
2023-05-24T17:16:06.961Z,100570.77
2023-05-24T17:18:36.137Z,100574.56
2023-05-24T17:21:07.044Z,100575.86
2023-05-24T17:23:39.243Z,100580.31
2023-05-24T17:26:08.945Z,100586.02
2023-05-24T17:28:37.745Z,100586.92
2023-05-24T17:31:09.681Z,100587.04
2023-05-24T17:33:38.415Z,100590.11
2023-05-24T17:36:09.626Z,100590.21
2023-05-24T17:38:39.495Z,100588.47
2023-05-24T17:41:10.086Z,100591.46
2023-05-24T17:43:40.704Z,100595.57
2023-05-24T17:46:10.204Z,100593.77
2023-05-24T17:48:41.514Z,100596.62
2023-05-24T17:51:11.314Z,100599.83
2023-05-24T17:54:01.275Z,100601.83
2023-05-24T17:56:30.829Z,100599.70
2023-05-24T17:58:59.897Z,100607.11
2023-05-24T18:01:29.456Z,100608.82
2023-05-24T18:03:58.338Z,100612.91
2023-05-24T18:06:27.066Z,100612.19
2023-05-24T18:08:58.054Z,100617.38
2023-05-24T18:11:27.931Z,100615.39
2023-05-24T18:13:57.402Z,100620.04
2023-05-24T18:16:26.297Z,100622.89
2023-05-24T18:18:55.007Z,100626.13
2023-05-24T18:21:23.684Z,100626.79
2023-05-24T18:23:52.530Z,100632.95
2023-05-24T18:26:29.147Z,100635.08
2023-05-24T18:28:57.732Z,100638.77
2023-05-24T18:31:26.317Z,100647.49
2023-05-24T18:33:55.395Z,100649.38
2023-05-24T18:36:24.216Z,100646.18
2023-05-24T18:38:52.949Z,100650.23
2023-05-24T18:41:22.309Z,100653.21
2023-05-24T18:43:51.783Z,100652.00
2023-05-24T18:46:21.224Z,100651.77
2023-05-24T18:48:50.261Z,100653.91
2023-05-24T18:51:19.405Z,100659.60
2023-05-24T18:53:50.611Z,100677.43
2023-05-24T18:56:19.408Z,100676.51
2023-05-24T18:58:49.971Z,100679.70
2023-05-24T19:01:19.273Z,100689.89
2023-05-24T19:03:48.186Z,100687.80
2023-05-24T19:06:16.773Z,100685.84
2023-05-24T19:08:45.488Z,100694.77
2023-05-24T19:11:14.145Z,100697.14
2023-05-24T19:13:42.739Z,100702.06
2023-05-24T19:16:17.698Z,100703.30
2023-05-24T19:18:46.695Z,100703.54
2023-05-24T19:21:15.257Z,100704.19
2023-05-24T19:23:43.934Z,100707.02
2023-05-24T19:26:12.717Z,100711.13
2023-05-24T19:28:42.359Z,100714.08
2023-05-24T19:31:10.942Z,100714.87
2023-05-24T19:33:52.012Z,100713.75
2023-05-24T19:36:31.002Z,100710.86
2023-05-24T19:39:00.680Z,100712.95
2023-05-24T19:41:29.514Z,100705.71
2023-05-24T19:44:01.512Z,100709.80
2023-05-24T19:46:30.212Z,100714.81
2023-05-24T19:48:59.011Z,100714.37
2023-05-24T19:51:28.645Z,100720.23
2023-05-24T19:53:57.479Z,100723.09
2023-05-24T19:56:26.946Z,100724.41
2023-05-24T19:58:55.766Z,100723.20
2023-05-24T20:01:24.381Z,100722.94
2023-05-24T20:03:53.108Z,100723.77
2023-05-24T20:06:21.924Z,100723.25
2023-05-24T20:08:53.485Z,100734.92
2023-05-24T20:11:22.254Z,100743.27
2023-05-24T20:13:52.766Z,100743.35
2023-05-24T20:16:23.026Z,100746.25
2023-05-24T20:18:53.781Z,100740.51
2023-05-24T20:21:22.435Z,100740.13
2023-05-24T20:23:57.717Z,100737.16
2023-05-24T20:26:27.462Z,100736.36
2023-05-24T20:28:56.219Z,100734.15
2023-05-24T20:31:24.965Z,100733.83
2023-05-24T20:33:53.517Z,100734.24
2023-05-24T20:36:22.362Z,100736.39
2023-05-24T20:38:51.499Z,100735.65
2023-05-24T20:41:20.111Z,100745.16
2023-05-24T20:43:49.492Z,100746.52
2023-05-24T20:46:18.161Z,100745.70
2023-05-24T20:48:46.850Z,100744.73
2023-05-24T20:53:51.824Z,100740.77
2023-05-24T20:56:23.122Z,100743.48
2023-05-24T20:58:53.714Z,100741.86
2023-05-24T21:01:25.403Z,100739.73
2023-05-24T21:03:54.079Z,100742.52
2023-05-24T21:06:23.553Z,100746.30
2023-05-24T21:08:52.273Z,100746.67
2023-05-24T21:11:20.812Z,100747.45
2023-05-24T21:13:51.822Z,100749.61
2023-05-24T21:16:20.546Z,100753.92
2023-05-24T21:18:53.682Z,100763.20
2023-05-24T21:21:24.128Z,100765.22
2023-05-24T21:23:52.755Z,100760.85
2023-05-24T21:26:22.908Z,100757.54
2023-05-24T21:28:52.123Z,100754.75
2023-05-24T21:31:21.088Z,100762.34
2023-05-24T21:33:49.733Z,100770.99
2023-05-24T21:36:18.640Z,100774.06
2023-05-24T21:38:47.641Z,100775.13
2023-05-24T21:41:16.243Z,100781.42
2023-05-24T21:43:44.979Z,100784.52
2023-05-24T21:46:13.774Z,100781.63
2023-05-24T21:48:42.490Z,100781.23
2023-05-24T21:51:11.103Z,100783.09
2023-05-24T21:53:39.589Z,100781.94
2023-05-24T21:56:08.072Z,100777.46
2023-05-24T21:58:37.745Z,100785.05
2023-05-24T22:01:08.389Z,100782.67
2023-05-24T22:03:38.560Z,100782.80
2023-05-24T22:06:09.203Z,100779.06
2023-05-24T22:08:37.822Z,100776.05
2023-05-24T22:11:06.885Z,100777.61
2023-05-24T22:13:35.599Z,100773.92
2023-05-24T22:16:04.501Z,100778.60
2023-05-24T22:18:34.458Z,100777.73
2023-05-24T22:21:03.001Z,100776.53
2023-05-24T22:23:31.589Z,100773.98
2023-05-24T22:26:00.207Z,100777.73
2023-05-24T22:28:29.069Z,100781.91
2023-05-24T22:30:57.637Z,100785.25
2023-05-24T22:33:26.344Z,100786.83
2023-05-24T22:35:55.057Z,100788.54
2023-05-24T22:38:23.642Z,100790.25
2023-05-24T22:40:52.290Z,100792.39
2023-05-24T22:43:20.853Z,100794.06
2023-05-24T22:45:49.558Z,100796.28
2023-05-24T22:48:18.259Z,100794.96
2023-05-24T22:50:46.939Z,100794.54
2023-05-24T22:53:17.294Z,100793.98
2023-05-24T22:55:45.938Z,100802.84
2023-05-24T22:58:15.681Z,100816.10
2023-05-24T23:00:44.205Z,100833.13
2023-05-24T23:03:12.945Z,100842.83
2023-05-24T23:05:42.134Z,100841.70
2023-05-24T23:08:13.254Z,100835.86
2023-05-24T23:10:46.947Z,100838.13
2023-05-24T23:13:17.992Z,100833.98
2023-05-24T23:15:47.103Z,100834.83
2023-05-24T23:18:16.425Z,100838.64
2023-05-24T23:20:45.349Z,100832.73
2023-05-24T23:23:14.019Z,100821.31
2023-05-24T23:25:43.538Z,100816.88
2023-05-24T23:28:12.416Z,100812.92
2023-05-24T23:30:41.154Z,100823.02
2023-05-24T23:33:09.975Z,100830.01
2023-05-24T23:35:41.235Z,100826.05
2023-05-24T23:38:10.214Z,100824.30
2023-05-24T23:40:38.852Z,100820.30
2023-05-24T23:43:07.971Z,100832.37
2023-05-24T23:45:36.535Z,100843.45
2023-05-24T23:48:05.250Z,100836.73
2023-05-24T23:50:40.110Z,100839.56
2023-05-24T23:53:11.943Z,100836.38
2023-05-24T23:55:41.027Z,100833.31
2023-05-24T23:58:09.824Z,100827.74
